createdAt,value
2022-08-25T00:00:20.219Z,993.71
2022-08-25T00:01:20.257Z,993.64
2022-08-25T00:02:20.282Z,993.61
2022-08-25T00:03:20.223Z,993.68
2022-08-25T00:04:20.234Z,993.67
2022-08-25T00:05:20.251Z,993.62
2022-08-25T00:06:20.213Z,993.68
2022-08-25T00:07:20.297Z,993.62
2022-08-25T00:08:20.169Z,993.62
2022-08-25T00:09:20.182Z,993.65
2022-08-25T00:10:20.223Z,993.56
2022-08-25T00:11:20.179Z,993.60
2022-08-25T00:12:20.281Z,993.61
2022-08-25T00:13:20.155Z,993.56
2022-08-25T00:14:20.158Z,993.60
2022-08-25T00:15:20.149Z,993.59
2022-08-25T00:16:20.224Z,993.61
2022-08-25T00:17:20.135Z,993.60
2022-08-25T00:18:20.186Z,993.66
2022-08-25T00:19:20.126Z,993.63
2022-08-25T00:20:20.140Z,993.62
2022-08-25T00:21:20.099Z,993.62
2022-08-25T00:22:20.101Z,993.59
2022-08-25T00:23:20.325Z,993.63
2022-08-25T00:24:20.084Z,993.65
2022-08-25T00:25:20.086Z,993.65
2022-08-25T00:26:20.115Z,993.66
2022-08-25T00:27:20.067Z,993.64
2022-08-25T00:28:20.089Z,993.65
2022-08-25T00:29:20.186Z,993.67
2022-08-25T00:30:20.061Z,993.63
2022-08-25T00:31:20.105Z,993.69
2022-08-25T00:32:20.063Z,993.61
2022-08-25T00:33:20.058Z,993.68
2022-08-25T00:34:20.291Z,993.66
2022-08-25T00:35:20.050Z,993.68
2022-08-25T00:36:20.017Z,993.76
2022-08-25T00:37:20.063Z,993.75
2022-08-25T00:38:20.024Z,993.62
2022-08-25T00:39:20.016Z,993.57
2022-08-25T00:40:20.406Z,993.64
2022-08-25T00:41:20.019Z,993.59
2022-08-25T00:42:19.997Z,993.71
2022-08-25T00:43:19.986Z,993.63
2022-08-25T00:44:20.066Z,993.68
2022-08-25T00:45:19.995Z,993.67
2022-08-25T00:46:20.008Z,993.59
2022-08-25T00:47:19.970Z,993.57
2022-08-25T00:48:19.950Z,993.68
2022-08-25T00:49:24.782Z,993.64
2022-08-25T00:50:19.989Z,993.70
2022-08-25T00:51:19.968Z,993.69
2022-08-25T00:52:19.942Z,993.64
2022-08-25T00:53:19.936Z,993.69
2022-08-25T00:54:19.956Z,993.70
2022-08-25T00:55:19.959Z,993.68
2022-08-25T00:56:20.818Z,993.71
2022-08-25T00:57:19.930Z,993.75
2022-08-25T00:58:20.905Z,993.69
2022-08-25T00:59:19.899Z,993.62
2022-08-25T01:00:19.909Z,993.63
2022-08-25T01:01:20.682Z,993.63
2022-08-25T01:02:19.908Z,993.68
2022-08-25T01:03:19.916Z,993.65
2022-08-25T01:04:19.873Z,993.70
2022-08-25T01:05:19.875Z,993.65
2022-08-25T01:06:19.887Z,993.61
2022-08-25T01:07:19.853Z,993.65
2022-08-25T01:08:19.918Z,993.65
2022-08-25T01:09:19.846Z,993.66
2022-08-25T01:10:19.844Z,993.60
2022-08-25T01:11:19.870Z,993.63
2022-08-25T01:12:19.838Z,993.65
2022-08-25T01:13:19.826Z,993.60
2022-08-25T01:14:19.837Z,993.64
2022-08-25T01:15:19.799Z,993.53
2022-08-25T01:16:19.877Z,993.60
2022-08-25T01:17:19.809Z,993.61
2022-08-25T01:18:19.844Z,993.58
2022-08-25T01:19:19.816Z,993.64
2022-08-25T01:20:19.804Z,993.64
2022-08-25T01:21:20.721Z,993.63
2022-08-25T01:22:19.770Z,993.60
2022-08-25T01:23:19.764Z,993.66
2022-08-25T01:24:19.750Z,993.56
2022-08-25T01:25:19.772Z,993.54
2022-08-25T01:26:19.783Z,993.61
2022-08-25T01:27:19.736Z,993.60
2022-08-25T01:28:19.747Z,993.62
2022-08-25T01:29:19.737Z,993.60
2022-08-25T01:30:19.743Z,993.56
2022-08-25T01:31:24.119Z,993.62
2022-08-25T01:32:19.705Z,993.58
2022-08-25T01:33:19.702Z,993.50
2022-08-25T01:34:19.687Z,993.58
2022-08-25T01:35:19.705Z,993.58
2022-08-25T01:36:19.710Z,993.55
2022-08-25T01:37:19.681Z,993.56
2022-08-25T01:38:19.672Z,993.52
2022-08-25T01:39:19.692Z,993.47
2022-08-25T01:40:19.757Z,993.44
2022-08-25T01:41:19.665Z,993.45
2022-08-25T01:42:19.650Z,993.44
2022-08-25T01:43:19.638Z,993.49
2022-08-25T01:44:19.649Z,993.43
2022-08-25T01:45:19.658Z,993.41
2022-08-25T01:46:19.677Z,993.44
2022-08-25T01:47:19.615Z,993.50
2022-08-25T01:48:19.619Z,993.44
2022-08-25T01:49:19.606Z,993.42
2022-08-25T01:50:19.632Z,993.42
2022-08-25T01:51:19.607Z,993.40
2022-08-25T01:52:19.627Z,993.45
2022-08-25T01:53:19.597Z,993.42
2022-08-25T01:54:19.590Z,993.40
2022-08-25T01:55:19.584Z,993.43
2022-08-25T01:56:19.678Z,993.43
2022-08-25T01:57:19.557Z,993.44
2022-08-25T01:58:19.561Z,993.47
2022-08-25T01:59:24.031Z,993.44
2022-08-25T02:00:19.549Z,993.41
2022-08-25T02:01:19.650Z,993.41
2022-08-25T02:02:19.609Z,993.38
2022-08-25T02:03:19.635Z,993.43
2022-08-25T02:04:19.556Z,993.40
2022-08-25T02:05:23.323Z,993.39
2022-08-25T02:06:20.552Z,993.40
2022-08-25T02:07:19.554Z,993.33
2022-08-25T02:08:19.517Z,993.31
2022-08-25T02:09:19.500Z,993.32
2022-08-25T02:10:19.531Z,993.38
2022-08-25T02:11:19.481Z,993.33
2022-08-25T02:12:19.588Z,993.32
2022-08-25T02:13:19.477Z,993.37
2022-08-25T02:14:19.469Z,993.37
2022-08-25T02:15:19.459Z,993.32
2022-08-25T02:16:19.514Z,993.35
2022-08-25T02:17:20.481Z,993.39
2022-08-25T02:18:19.458Z,993.30
2022-08-25T02:19:19.446Z,993.37
2022-08-25T02:20:19.443Z,993.34
2022-08-25T02:21:19.431Z,993.39
2022-08-25T02:22:19.451Z,993.31
2022-08-25T02:23:19.482Z,993.34
2022-08-25T02:24:19.415Z,993.36
2022-08-25T02:25:19.417Z,993.31
2022-08-25T02:26:19.394Z,993.32
2022-08-25T02:27:19.435Z,993.31
2022-08-25T02:28:19.405Z,993.30
2022-08-25T02:29:19.394Z,993.31
2022-08-25T02:30:19.375Z,993.30
2022-08-25T02:31:19.370Z,993.31
2022-08-25T02:32:19.385Z,993.26
2022-08-25T02:33:19.386Z,993.26
2022-08-25T02:34:19.373Z,993.30
2022-08-25T02:35:19.348Z,993.22
2022-08-25T02:36:19.342Z,993.21
2022-08-25T02:37:19.355Z,993.24
2022-08-25T02:38:19.355Z,993.24
2022-08-25T02:39:19.316Z,993.21
2022-08-25T02:40:19.375Z,993.21
2022-08-25T02:41:19.323Z,993.27
2022-08-25T02:42:19.341Z,993.29
2022-08-25T02:43:19.311Z,993.28
2022-08-25T02:44:19.306Z,993.24
2022-08-25T02:45:19.300Z,993.29
2022-08-25T02:46:19.332Z,993.20
2022-08-25T02:47:19.303Z,993.29
2022-08-25T02:48:20.304Z,993.25
2022-08-25T02:49:19.276Z,993.25
2022-08-25T02:50:19.267Z,993.28
2022-08-25T02:51:20.268Z,993.29
2022-08-25T02:52:19.268Z,993.23
2022-08-25T02:53:19.253Z,993.26
2022-08-25T02:54:19.244Z,993.22
2022-08-25T02:55:19.275Z,993.29
2022-08-25T02:56:19.235Z,993.24
2022-08-25T02:57:19.244Z,993.22
2022-08-25T02:58:19.246Z,993.27
2022-08-25T02:59:19.236Z,993.24
2022-08-25T03:00:19.222Z,993.21
2022-08-25T03:01:19.224Z,993.29
2022-08-25T03:02:19.215Z,993.29
2022-08-25T03:03:19.219Z,993.28
2022-08-25T03:04:19.203Z,993.27
2022-08-25T03:05:19.189Z,993.23
2022-08-25T03:06:19.173Z,993.20
2022-08-25T03:07:19.180Z,993.25
2022-08-25T03:08:19.179Z,993.26
2022-08-25T03:09:19.178Z,993.23
2022-08-25T03:10:19.149Z,993.27
2022-08-25T03:11:19.159Z,993.26
2022-08-25T03:12:19.163Z,993.27
2022-08-25T03:13:19.277Z,993.22
2022-08-25T03:14:19.146Z,993.22
2022-08-25T03:15:19.136Z,993.23
2022-08-25T03:16:19.214Z,993.22
2022-08-25T03:17:19.110Z,993.22
2022-08-25T03:18:19.165Z,993.20
2022-08-25T03:19:19.115Z,993.17
2022-08-25T03:20:19.133Z,993.19
2022-08-25T03:21:19.100Z,993.20
2022-08-25T03:22:19.088Z,993.23
2022-08-25T03:23:19.086Z,993.17
2022-08-25T03:24:19.202Z,993.22
2022-08-25T03:25:23.895Z,993.20
2022-08-25T03:26:19.081Z,993.24
2022-08-25T03:27:19.054Z,993.25
2022-08-25T03:28:19.068Z,993.26
2022-08-25T03:29:19.102Z,993.25
2022-08-25T03:30:19.052Z,993.28
2022-08-25T03:31:19.071Z,993.23
2022-08-25T03:32:19.026Z,993.30
2022-08-25T03:33:19.035Z,993.23
2022-08-25T03:34:19.031Z,993.21
2022-08-25T03:35:19.126Z,993.23
2022-08-25T03:36:19.007Z,993.23
2022-08-25T03:37:18.993Z,993.19
2022-08-25T03:38:19.006Z,993.26
2022-08-25T03:39:19.017Z,993.18
2022-08-25T03:40:19.083Z,993.23
2022-08-25T03:41:19.703Z,993.18
2022-08-25T03:42:18.978Z,993.24
2022-08-25T03:43:18.959Z,993.22
2022-08-25T03:44:18.960Z,993.22
2022-08-25T03:45:18.958Z,993.23
2022-08-25T03:46:19.180Z,993.22
2022-08-25T03:47:18.964Z,993.17
2022-08-25T03:48:18.939Z,993.19
2022-08-25T03:49:18.950Z,993.15
2022-08-25T03:50:18.966Z,993.19
2022-08-25T03:51:19.020Z,993.20
2022-08-25T03:52:18.935Z,993.19
2022-08-25T03:53:18.927Z,993.16
2022-08-25T03:54:18.935Z,993.14
2022-08-25T03:55:18.911Z,993.08
2022-08-25T03:56:18.906Z,993.07
2022-08-25T03:57:18.914Z,993.04
2022-08-25T03:58:18.893Z,993.06
2022-08-25T03:59:18.869Z,993.05
2022-08-25T04:00:18.863Z,993.09
2022-08-25T04:01:19.229Z,993.05
2022-08-25T04:02:18.949Z,993.02
2022-08-25T04:03:18.897Z,993.11
2022-08-25T04:04:18.889Z,993.01
2022-08-25T04:05:18.849Z,993.08
2022-08-25T04:06:18.881Z,993.02
2022-08-25T04:07:18.845Z,992.98
2022-08-25T04:08:18.955Z,993.00
2022-08-25T04:09:18.835Z,993.03
2022-08-25T04:10:18.829Z,993.00
2022-08-25T04:11:18.811Z,992.98
2022-08-25T04:12:18.952Z,992.99
2022-08-25T04:13:18.837Z,993.00
2022-08-25T04:14:18.795Z,992.99
2022-08-25T04:15:19.778Z,993.03
2022-08-25T04:16:18.911Z,993.04
2022-08-25T04:17:19.789Z,992.99
2022-08-25T04:18:18.773Z,993.05
2022-08-25T04:19:18.817Z,993.09
2022-08-25T04:20:18.777Z,993.03
2022-08-25T04:21:18.790Z,993.09
2022-08-25T04:22:18.762Z,993.07
2022-08-25T04:23:18.748Z,993.13
2022-08-25T04:24:18.850Z,993.04
2022-08-25T04:25:18.744Z,993.03
2022-08-25T04:26:18.746Z,993.04
2022-08-25T04:27:18.734Z,993.13
2022-08-25T04:28:18.740Z,993.03
2022-08-25T04:29:18.728Z,993.11
2022-08-25T04:30:18.763Z,993.07
2022-08-25T04:31:18.760Z,993.08
2022-08-25T04:32:18.710Z,993.08
2022-08-25T04:33:18.700Z,993.06
2022-08-25T04:34:31.106Z,993.11
2022-08-25T04:35:19.798Z,993.08
2022-08-25T04:36:18.678Z,993.06
2022-08-25T04:37:18.692Z,993.04
2022-08-25T04:38:18.668Z,993.09
2022-08-25T04:39:18.658Z,993.11
2022-08-25T04:40:18.733Z,993.11
2022-08-25T04:41:19.695Z,993.10
2022-08-25T04:42:18.685Z,993.10
2022-08-25T04:43:18.661Z,993.10
2022-08-25T04:44:18.662Z,993.09
2022-08-25T04:45:18.637Z,993.13
2022-08-25T04:46:20.353Z,993.14
2022-08-25T04:47:18.626Z,993.14
2022-08-25T04:48:18.616Z,993.12
2022-08-25T04:49:18.633Z,993.17
2022-08-25T04:50:18.615Z,993.12
2022-08-25T04:51:18.604Z,993.18
2022-08-25T04:52:18.612Z,993.21
2022-08-25T04:53:18.588Z,993.17
2022-08-25T04:54:18.665Z,993.20
2022-08-25T04:55:18.562Z,993.20
2022-08-25T04:56:18.580Z,993.21
2022-08-25T04:57:18.575Z,993.21
2022-08-25T04:58:18.562Z,993.18
2022-08-25T04:59:18.553Z,993.14
2022-08-25T05:00:18.542Z,993.10
2022-08-25T05:01:18.632Z,993.08
2022-08-25T05:02:18.590Z,993.10
2022-08-25T05:03:18.544Z,993.06
2022-08-25T05:04:28.328Z,993.05
2022-08-25T05:05:19.514Z,993.02
2022-08-25T05:06:18.512Z,993.05
2022-08-25T05:07:18.503Z,992.95
2022-08-25T05:08:18.524Z,992.96
2022-08-25T05:09:19.775Z,992.97
2022-08-25T05:10:18.497Z,992.96
2022-08-25T05:11:18.473Z,992.83
2022-08-25T05:12:18.479Z,992.86
2022-08-25T05:13:18.489Z,992.89
2022-08-25T05:14:18.490Z,992.91
2022-08-25T05:15:18.488Z,992.85
2022-08-25T05:16:18.522Z,992.84
2022-08-25T05:17:18.458Z,992.89
2022-08-25T05:18:18.479Z,992.88
2022-08-25T05:19:18.567Z,992.92
2022-08-25T05:20:18.442Z,992.91
2022-08-25T05:21:18.433Z,992.89
2022-08-25T05:22:18.883Z,992.81
2022-08-25T05:23:18.429Z,992.84
2022-08-25T05:24:18.413Z,992.88
2022-08-25T05:25:18.474Z,992.90
2022-08-25T05:26:20.318Z,992.87
2022-08-25T05:27:18.428Z,992.93
2022-08-25T05:28:18.408Z,992.94
2022-08-25T05:29:18.396Z,992.90
2022-08-25T05:30:18.402Z,992.91
2022-08-25T05:31:18.422Z,992.87
2022-08-25T05:32:18.397Z,992.92
2022-08-25T05:33:18.404Z,992.91
2022-08-25T05:34:18.377Z,992.93
2022-08-25T05:35:18.361Z,992.90
2022-08-25T05:36:18.405Z,992.92
2022-08-25T05:37:18.346Z,993.04
2022-08-25T05:38:18.369Z,992.96
2022-08-25T05:39:18.335Z,992.95
2022-08-25T05:40:19.378Z,992.97
2022-08-25T05:41:18.439Z,993.02
2022-08-25T05:42:18.316Z,993.05
2022-08-25T05:43:18.326Z,993.04
2022-08-25T05:44:21.105Z,993.09
2022-08-25T05:45:20.561Z,993.03
2022-08-25T05:46:18.411Z,993.04
2022-08-25T05:47:18.318Z,993.02
2022-08-25T05:48:18.291Z,993.04
2022-08-25T05:49:18.290Z,993.06
2022-08-25T05:50:18.262Z,993.10
2022-08-25T05:51:18.296Z,993.05
2022-08-25T05:52:20.225Z,993.07
2022-08-25T05:53:19.264Z,993.03
2022-08-25T05:54:18.274Z,992.99
2022-08-25T05:55:18.253Z,992.99
2022-08-25T05:56:18.238Z,992.93
2022-08-25T05:57:19.331Z,992.93
2022-08-25T05:58:18.225Z,992.90
2022-08-25T05:59:18.270Z,992.91
2022-08-25T06:00:18.211Z,992.97
2022-08-25T06:01:18.264Z,992.95
2022-08-25T06:02:18.215Z,992.97
2022-08-25T06:03:18.318Z,992.92
2022-08-25T06:04:18.232Z,992.98
2022-08-25T06:05:18.201Z,992.92
2022-08-25T06:06:18.808Z,993.02
2022-08-25T06:07:18.174Z,992.98
2022-08-25T06:08:18.294Z,992.93
2022-08-25T06:09:18.196Z,992.96
2022-08-25T06:10:18.170Z,992.94
2022-08-25T06:11:18.176Z,992.98
2022-08-25T06:12:18.153Z,992.90
2022-08-25T06:13:18.148Z,992.87
2022-08-25T06:14:19.263Z,992.87
2022-08-25T06:15:18.133Z,992.92
2022-08-25T06:16:18.201Z,992.84
2022-08-25T06:17:18.128Z,992.77
2022-08-25T06:18:18.118Z,992.82
2022-08-25T06:19:18.148Z,992.79
2022-08-25T06:20:18.131Z,992.77
2022-08-25T06:21:18.112Z,992.83
2022-08-25T06:22:18.119Z,992.86
2022-08-25T06:23:18.109Z,992.80
2022-08-25T06:24:18.096Z,992.79
2022-08-25T06:25:18.193Z,992.77
2022-08-25T06:26:20.964Z,992.77
2022-08-25T06:27:18.073Z,992.81
2022-08-25T06:28:18.076Z,992.75
2022-08-25T06:29:18.079Z,992.78
2022-08-25T06:30:24.057Z,992.67
2022-08-25T06:31:19.248Z,992.73
2022-08-25T06:32:18.084Z,992.68
2022-08-25T06:33:18.032Z,992.65
2022-08-25T06:34:18.044Z,992.71
2022-08-25T06:35:18.036Z,992.67
2022-08-25T06:36:18.035Z,992.76
2022-08-25T06:37:20.384Z,992.68
2022-08-25T06:38:17.990Z,992.68
2022-08-25T06:39:18.001Z,992.72
2022-08-25T06:40:18.042Z,992.69
2022-08-25T06:41:18.023Z,992.72
2022-08-25T06:42:18.002Z,992.72
2022-08-25T06:43:17.975Z,992.71
2022-08-25T06:44:18.008Z,992.80
2022-08-25T06:45:17.987Z,992.72
2022-08-25T06:46:18.029Z,992.67
2022-08-25T06:47:18.043Z,992.62
2022-08-25T06:48:17.970Z,992.63
2022-08-25T06:49:17.945Z,992.61
2022-08-25T06:50:18.940Z,992.53
2022-08-25T06:51:17.943Z,992.59
2022-08-25T06:52:17.963Z,992.58
2022-08-25T06:53:17.928Z,992.55
2022-08-25T06:54:17.923Z,992.53
2022-08-25T06:55:17.905Z,992.54
2022-08-25T06:56:17.912Z,992.61
2022-08-25T06:57:18.016Z,992.43
2022-08-25T06:58:17.893Z,992.50
2022-08-25T06:59:17.909Z,992.58
2022-08-25T07:00:17.886Z,992.58
2022-08-25T07:01:19.883Z,992.48
2022-08-25T07:02:22.233Z,992.54
2022-08-25T07:03:17.992Z,992.55
2022-08-25T07:04:17.924Z,992.53
2022-08-25T07:05:27.278Z,992.52
2022-08-25T07:06:18.877Z,992.53
2022-08-25T07:07:17.935Z,992.47
2022-08-25T07:08:17.974Z,992.50
2022-08-25T07:09:17.842Z,992.53
2022-08-25T07:10:19.529Z,992.48
2022-08-25T07:11:17.846Z,992.44
2022-08-25T07:12:17.824Z,992.49
2022-08-25T07:13:17.816Z,992.46
2022-08-25T07:14:17.921Z,992.44
2022-08-25T07:15:20.470Z,992.43
2022-08-25T07:16:18.861Z,992.49
2022-08-25T07:17:17.819Z,992.34
2022-08-25T07:18:17.793Z,992.39
2022-08-25T07:19:17.819Z,992.43
2022-08-25T07:20:19.141Z,992.37
2022-08-25T07:21:20.646Z,992.35
2022-08-25T07:22:17.760Z,992.43
2022-08-25T07:23:17.776Z,992.45
2022-08-25T07:24:17.776Z,992.42
2022-08-25T07:25:18.059Z,992.45
2022-08-25T07:26:41.088Z,992.43
2022-08-25T07:27:18.746Z,992.45
2022-08-25T07:28:17.786Z,992.38
2022-08-25T07:29:17.755Z,992.42
2022-08-25T07:30:17.856Z,992.43
2022-08-25T07:31:17.736Z,992.42
2022-08-25T07:32:17.762Z,992.46
2022-08-25T07:33:17.725Z,992.47
2022-08-25T07:34:17.715Z,992.49
2022-08-25T07:35:18.879Z,992.45
2022-08-25T07:36:17.830Z,992.48
2022-08-25T07:37:27.579Z,992.51
2022-08-25T07:38:20.956Z,992.50
2022-08-25T07:39:17.720Z,992.54
2022-08-25T07:40:18.736Z,992.56
2022-08-25T07:41:17.717Z,992.63
2022-08-25T07:42:17.690Z,992.53
2022-08-25T07:43:17.663Z,992.56
2022-08-25T07:44:17.735Z,992.52
2022-08-25T07:45:20.881Z,992.56
2022-08-25T07:46:17.735Z,992.53
2022-08-25T07:47:17.690Z,992.50
2022-08-25T07:48:18.371Z,992.50
2022-08-25T07:49:17.648Z,992.57
2022-08-25T07:50:17.635Z,992.60
2022-08-25T07:51:18.302Z,992.59
2022-08-25T07:52:17.746Z,992.56
2022-08-25T07:53:17.647Z,992.61
2022-08-25T07:54:17.614Z,992.56
2022-08-25T07:55:17.960Z,992.57
2022-08-25T07:56:17.601Z,992.63
2022-08-25T07:57:17.620Z,992.59
2022-08-25T07:58:17.747Z,992.62
2022-08-25T07:59:17.592Z,992.62
2022-08-25T08:00:17.571Z,992.58
2022-08-25T08:01:17.660Z,992.65
2022-08-25T08:02:18.995Z,992.62
2022-08-25T08:03:35.168Z,992.52
2022-08-25T08:04:18.568Z,992.60
2022-08-25T08:05:17.579Z,992.51
2022-08-25T08:06:17.553Z,992.57
2022-08-25T08:07:17.702Z,992.57
2022-08-25T08:08:18.943Z,992.56
2022-08-25T08:09:17.556Z,992.58
2022-08-25T08:11:18.534Z,992.55
2022-08-25T08:12:17.541Z,992.56
2022-08-25T08:13:18.667Z,992.61
2022-08-25T08:14:18.629Z,992.59
2022-08-25T08:15:17.520Z,992.61
2022-08-25T08:16:17.594Z,992.58
2022-08-25T08:17:17.499Z,992.58
2022-08-25T08:18:17.491Z,992.59
2022-08-25T08:19:17.513Z,992.60
2022-08-25T08:20:23.142Z,992.52
2022-08-25T08:21:19.036Z,992.49
2022-08-25T08:22:17.478Z,992.43
2022-08-25T08:23:17.478Z,992.41
2022-08-25T08:24:44.035Z,992.44
2022-08-25T08:25:21.426Z,992.46
2022-08-25T08:26:17.482Z,992.42
2022-08-25T08:27:17.461Z,992.48
2022-08-25T08:28:17.484Z,992.49
2022-08-25T08:29:17.447Z,992.43
2022-08-25T08:30:17.432Z,992.45
2022-08-25T08:31:17.515Z,992.44
2022-08-25T08:32:17.434Z,992.50
2022-08-25T08:33:17.428Z,992.41
2022-08-25T08:34:17.422Z,992.50
2022-08-25T08:35:17.429Z,992.48
2022-08-25T08:36:17.553Z,992.41
2022-08-25T08:37:17.431Z,992.42
2022-08-25T08:38:21.243Z,992.44
2022-08-25T08:39:17.408Z,992.39
2022-08-25T08:40:17.488Z,992.38
2022-08-25T08:41:17.389Z,992.39
2022-08-25T08:42:18.463Z,992.40
2022-08-25T08:43:18.231Z,992.43
2022-08-25T08:44:17.398Z,992.44
2022-08-25T08:45:17.387Z,992.39
2022-08-25T08:46:17.447Z,992.34
2022-08-25T08:47:17.478Z,992.37
2022-08-25T08:48:17.356Z,992.35
2022-08-25T08:49:17.372Z,992.32
2022-08-25T08:50:23.125Z,992.32
2022-08-25T08:51:18.361Z,992.33
2022-08-25T08:52:17.334Z,992.30
2022-08-25T08:53:17.446Z,992.26
2022-08-25T08:54:17.335Z,992.27
2022-08-25T08:55:17.354Z,992.30
2022-08-25T08:56:17.333Z,992.30
2022-08-25T08:57:17.421Z,992.33
2022-08-25T08:58:17.337Z,992.35
2022-08-25T08:59:17.312Z,992.32
2022-08-25T09:00:17.344Z,992.34
2022-08-25T09:01:17.438Z,992.31
2022-08-25T09:02:38.781Z,992.39
2022-08-25T09:03:18.443Z,992.31
2022-08-25T09:04:17.299Z,992.33
2022-08-25T09:05:17.316Z,992.32
2022-08-25T09:06:17.284Z,992.28
2022-08-25T09:07:17.283Z,992.32
2022-08-25T09:08:20.292Z,992.34
2022-08-25T09:09:20.177Z,992.37
2022-08-25T09:10:17.254Z,992.30
2022-08-25T09:11:18.962Z,992.38
2022-08-25T09:12:18.182Z,992.34
2022-08-25T09:13:17.279Z,992.36
2022-08-25T09:14:17.305Z,992.36
2022-08-25T09:15:17.275Z,992.30
2022-08-25T09:16:20.439Z,992.28
2022-08-25T09:17:18.258Z,992.32
2022-08-25T09:18:17.328Z,992.31
2022-08-25T09:19:21.331Z,992.30
2022-08-25T09:20:19.347Z,992.25
2022-08-25T09:21:17.238Z,992.26
2022-08-25T09:22:33.285Z,992.22
2022-08-25T09:23:20.392Z,992.20
2022-08-25T09:24:17.232Z,992.20
2022-08-25T09:25:21.924Z,992.17
2022-08-25T09:26:18.210Z,992.15
2022-08-25T09:27:17.212Z,992.06
2022-08-25T09:28:17.204Z,992.07
2022-08-25T09:29:17.265Z,992.11
2022-08-25T09:30:17.177Z,992.10
2022-08-25T09:31:17.279Z,992.06
2022-08-25T09:32:17.190Z,991.97
2022-08-25T09:33:21.005Z,992.01
2022-08-25T09:34:17.184Z,992.06
2022-08-25T09:35:17.168Z,991.96
2022-08-25T09:36:17.195Z,992.02
2022-08-25T09:37:17.156Z,992.03
2022-08-25T09:38:17.159Z,991.99
2022-08-25T09:39:17.154Z,992.04
2022-08-25T09:40:17.193Z,992.05
2022-08-25T09:41:17.147Z,992.04
2022-08-25T09:42:19.890Z,992.05
2022-08-25T09:43:18.134Z,992.05
2022-08-25T09:44:17.123Z,991.98
2022-08-25T09:45:17.128Z,991.94
2022-08-25T09:46:18.078Z,991.95
2022-08-25T09:47:17.157Z,991.95
2022-08-25T09:48:17.117Z,991.84
2022-08-25T09:49:17.090Z,991.82
2022-08-25T09:50:18.469Z,991.78
2022-08-25T09:51:17.096Z,991.78
2022-08-25T09:52:17.432Z,991.76
2022-08-25T09:53:19.008Z,991.69
2022-08-25T09:54:17.075Z,991.68
2022-08-25T09:55:17.087Z,991.66
2022-08-25T09:56:17.070Z,991.66
2022-08-25T09:57:17.067Z,991.66
2022-08-25T09:58:17.084Z,991.64
2022-08-25T09:59:17.058Z,991.68
2022-08-25T10:00:17.038Z,991.71
2022-08-25T10:01:17.081Z,991.62
2022-08-25T10:02:17.038Z,991.60
2022-08-25T10:03:17.034Z,991.50
2022-08-25T10:04:20.838Z,991.58
2022-08-25T10:05:18.088Z,991.49
2022-08-25T10:06:17.024Z,991.50
2022-08-25T10:07:17.015Z,991.37
2022-08-25T10:08:17.006Z,991.29
2022-08-25T10:09:17.038Z,991.30
2022-08-25T10:10:17.000Z,991.31
2022-08-25T10:11:17.021Z,991.37
2022-08-25T10:12:16.981Z,991.34
2022-08-25T10:13:16.971Z,991.33
2022-08-25T10:14:18.007Z,991.26
2022-08-25T10:15:16.969Z,991.25
2022-08-25T10:16:24.071Z,991.23
2022-08-25T10:17:16.978Z,991.28
2022-08-25T10:18:16.949Z,991.22
2022-08-25T10:19:16.944Z,991.16
2022-08-25T10:20:16.982Z,991.24
2022-08-25T10:21:17.289Z,991.19
2022-08-25T10:22:16.929Z,991.18
2022-08-25T10:23:16.927Z,991.19
2022-08-25T10:24:16.934Z,991.20
2022-08-25T10:25:16.944Z,991.15
2022-08-25T10:26:16.918Z,991.11
2022-08-25T10:27:16.920Z,991.14
2022-08-25T10:28:16.913Z,991.13
2022-08-25T10:29:16.876Z,991.11
2022-08-25T10:30:16.906Z,991.17
2022-08-25T10:31:16.989Z,991.15
2022-08-25T10:32:16.889Z,991.14
2022-08-25T10:33:17.591Z,991.12
2022-08-25T10:34:16.880Z,991.01
2022-08-25T10:35:16.878Z,990.98
2022-08-25T10:36:16.889Z,990.97
2022-08-25T10:37:16.847Z,990.99
2022-08-25T10:38:21.753Z,990.89
2022-08-25T10:39:34.060Z,990.90
2022-08-25T10:40:17.919Z,990.89
2022-08-25T10:41:16.831Z,990.86
2022-08-25T10:42:16.862Z,990.82
2022-08-25T10:43:16.860Z,990.83
2022-08-25T10:44:16.815Z,990.80
2022-08-25T10:45:16.818Z,990.87
2022-08-25T10:46:18.880Z,990.83
2022-08-25T10:47:16.826Z,990.90
2022-08-25T10:48:16.810Z,990.88
2022-08-25T10:49:16.808Z,990.81
2022-08-25T10:50:16.793Z,990.76
2022-08-25T10:51:20.517Z,990.79
2022-08-25T10:52:18.806Z,990.75
2022-08-25T10:53:16.927Z,990.78
2022-08-25T10:54:16.776Z,990.73
2022-08-25T10:55:16.776Z,990.72
2022-08-25T10:56:16.759Z,990.72
2022-08-25T10:57:16.762Z,990.71
2022-08-25T10:58:17.044Z,990.73
2022-08-25T10:59:16.763Z,990.65
2022-08-25T11:00:16.764Z,990.67
2022-08-25T11:01:16.834Z,990.67
2022-08-25T11:02:16.739Z,990.64
2022-08-25T11:03:16.792Z,990.67
2022-08-25T11:04:16.733Z,990.62
2022-08-25T11:05:16.716Z,990.61
2022-08-25T11:06:16.729Z,990.55
2022-08-25T11:07:16.722Z,990.59
2022-08-25T11:08:16.739Z,990.58
2022-08-25T11:09:16.830Z,990.55
2022-08-25T11:10:16.703Z,990.61
2022-08-25T11:11:16.706Z,990.50
2022-08-25T11:12:16.703Z,990.57
2022-08-25T11:13:16.695Z,990.62
2022-08-25T11:14:16.886Z,990.53
2022-08-25T11:15:16.705Z,990.53
2022-08-25T11:16:19.201Z,990.51
2022-08-25T11:17:17.756Z,990.41
2022-08-25T11:18:16.669Z,990.51
2022-08-25T11:19:16.655Z,990.52
2022-08-25T11:20:19.968Z,990.55
2022-08-25T11:21:17.639Z,990.40
2022-08-25T11:22:16.655Z,990.43
2022-08-25T11:23:16.629Z,990.44
2022-08-25T11:24:16.643Z,990.36
2022-08-25T11:25:16.660Z,990.37
2022-08-25T11:26:16.615Z,990.37
2022-08-25T11:27:17.617Z,990.37
2022-08-25T11:28:16.609Z,990.36
2022-08-25T11:29:16.591Z,990.40
2022-08-25T11:30:16.606Z,990.32
2022-08-25T11:31:16.763Z,990.32
2022-08-25T11:32:16.591Z,990.37
2022-08-25T11:33:16.603Z,990.33
2022-08-25T11:34:19.399Z,990.32
2022-08-25T11:35:16.576Z,990.30
2022-08-25T11:36:16.912Z,990.27
2022-08-25T11:37:16.575Z,990.32
2022-08-25T11:38:16.564Z,990.31
2022-08-25T11:39:17.415Z,990.28
2022-08-25T11:40:16.612Z,990.27
2022-08-25T11:41:16.552Z,990.32
2022-08-25T11:42:17.409Z,990.26
2022-08-25T11:43:16.535Z,990.28
2022-08-25T11:44:16.528Z,990.30
2022-08-25T11:45:16.516Z,990.25
2022-08-25T11:46:16.539Z,990.24
2022-08-25T11:47:21.559Z,990.27
2022-08-25T11:48:17.516Z,990.31
2022-08-25T11:49:16.504Z,990.29
2022-08-25T11:50:16.502Z,990.35
2022-08-25T11:51:16.550Z,990.27
2022-08-25T11:52:16.493Z,990.27
2022-08-25T11:53:16.501Z,990.23
2022-08-25T11:54:16.477Z,990.32
2022-08-25T11:55:16.485Z,990.19
2022-08-25T11:56:16.456Z,990.26
2022-08-25T11:57:16.445Z,990.15
2022-08-25T11:58:16.885Z,990.19
2022-08-25T11:59:16.455Z,990.25
2022-08-25T12:00:16.457Z,990.23
2022-08-25T12:01:16.438Z,990.23
2022-08-25T12:02:16.434Z,990.22
2022-08-25T12:03:16.429Z,990.21
2022-08-25T12:04:16.505Z,990.22
2022-08-25T12:05:16.534Z,990.16
2022-08-25T12:06:16.419Z,990.17
2022-08-25T12:07:16.414Z,990.14
2022-08-25T12:08:16.414Z,990.20
2022-08-25T12:09:16.407Z,990.16
2022-08-25T12:10:16.399Z,990.05
2022-08-25T12:11:16.391Z,990.07
2022-08-25T12:12:16.384Z,990.07
2022-08-25T12:13:16.361Z,990.10
2022-08-25T12:14:16.384Z,990.16
2022-08-25T12:15:16.400Z,990.10
2022-08-25T12:16:16.367Z,990.10
2022-08-25T12:17:16.350Z,990.10
2022-08-25T12:18:16.340Z,990.10
2022-08-25T12:19:16.362Z,990.09
2022-08-25T12:20:16.409Z,990.02
2022-08-25T12:21:16.331Z,989.99
2022-08-25T12:22:16.340Z,990.02
2022-08-25T12:23:16.330Z,989.92
2022-08-25T12:24:16.331Z,989.98
2022-08-25T12:25:16.307Z,990.00
2022-08-25T12:26:16.465Z,990.02
2022-08-25T12:27:16.313Z,990.04
2022-08-25T12:28:16.310Z,990.01
2022-08-25T12:29:16.293Z,990.04